sensor_id;sensor_type;location;lat;lon;timestamp;temperature;humidity
54260;DHT22;40172;53.022;7.012;2023-04-03T00:01:09;0.80;99.90
54260;DHT22;40172;53.022;7.012;2023-04-03T00:03:35;0.80;99.90
54260;DHT22;40172;53.022;7.012;2023-04-03T00:06:02;0.80;99.90
54260;DHT22;40172;53.022;7.012;2023-04-03T00:08:27;0.80;99.90
54260;DHT22;40172;53.022;7.012;2023-04-03T00:10:55;0.80;99.90
54260;DHT22;40172;53.022;7.012;2023-04-03T00:13:21;0.70;99.90
54260;DHT22;40172;53.022;7.012;2023-04-03T00:15:47;0.70;99.90
54260;DHT22;40172;53.022;7.012;2023-04-03T00:18:12;0.80;99.90
54260;DHT22;40172;53.022;7.012;2023-04-03T00:20:38;0.80;99.90
54260;DHT22;40172;53.022;7.012;2023-04-03T00:23:04;0.70;99.90
54260;DHT22;40172;53.022;7.012;2023-04-03T00:25:30;1.00;99.90
54260;DHT22;40172;53.022;7.012;2023-04-03T00:27:55;0.70;99.90
54260;DHT22;40172;53.022;7.012;2023-04-03T00:30:22;0.80;99.90
54260;DHT22;40172;53.022;7.012;2023-04-03T00:32:49;0.70;99.90
54260;DHT22;40172;53.022;7.012;2023-04-03T00:35:15;0.70;99.90
54260;DHT22;40172;53.022;7.012;2023-04-03T00:37:44;0.70;99.90
54260;DHT22;40172;53.022;7.012;2023-04-03T00:40:10;0.60;99.90
54260;DHT22;40172;53.022;7.012;2023-04-03T00:42:37;0.60;99.90
54260;DHT22;40172;53.022;7.012;2023-04-03T00:47:29;0.60;99.90
54260;DHT22;40172;53.022;7.012;2023-04-03T00:49:57;0.60;99.90
54260;DHT22;40172;53.022;7.012;2023-04-03T00:52:26;0.60;99.90
54260;DHT22;40172;53.022;7.012;2023-04-03T00:54:56;0.60;99.90
54260;DHT22;40172;53.022;7.012;2023-04-03T00:57:23;0.80;99.90
54260;DHT22;40172;53.022;7.012;2023-04-03T00:59:54;0.50;99.90
54260;DHT22;40172;53.022;7.012;2023-04-03T01:02:21;0.60;99.90
54260;DHT22;40172;53.022;7.012;2023-04-03T01:04:47;0.40;99.90
54260;DHT22;40172;53.022;7.012;2023-04-03T01:07:18;0.40;99.90
54260;DHT22;40172;53.022;7.012;2023-04-03T01:09:45;0.40;99.90
54260;DHT22;40172;53.022;7.012;2023-04-03T01:14:52;0.30;99.90
54260;DHT22;40172;53.022;7.012;2023-04-03T01:17:35;0.30;99.90
54260;DHT22;40172;53.022;7.012;2023-04-03T01:25:36;0.20;99.90
54260;DHT22;40172;53.022;7.012;2023-04-03T01:28:03;0.10;99.90
54260;DHT22;40172;53.022;7.012;2023-04-03T01:30:53;0.10;99.90
54260;DHT22;40172;53.022;7.012;2023-04-03T01:33:21;0.10;99.90
54260;DHT22;40172;53.022;7.012;2023-04-03T01:35:47;0.00;99.90
54260;DHT22;40172;53.022;7.012;2023-04-03T01:38:13;0.00;99.90
54260;DHT22;40172;53.022;7.012;2023-04-03T01:40:38;0.00;99.90
54260;DHT22;40172;53.022;7.012;2023-04-03T01:43:04;0.00;99.90
54260;DHT22;40172;53.022;7.012;2023-04-03T01:45:29;-0.10;99.90
54260;DHT22;40172;53.022;7.012;2023-04-03T01:47:55;-0.10;99.90
54260;DHT22;40172;53.022;7.012;2023-04-03T01:50:20;-0.10;99.90
54260;DHT22;40172;53.022;7.012;2023-04-03T01:52:46;-0.10;99.90
54260;DHT22;40172;53.022;7.012;2023-04-03T01:55:12;-0.20;99.90
54260;DHT22;40172;53.022;7.012;2023-04-03T01:57:38;-0.20;99.90
54260;DHT22;40172;53.022;7.012;2023-04-03T02:00:04;-0.30;99.90
54260;DHT22;40172;53.022;7.012;2023-04-03T02:02:29;-0.30;99.90
54260;DHT22;40172;53.022;7.012;2023-04-03T02:04:55;-0.30;99.90
54260;DHT22;40172;53.022;7.012;2023-04-03T02:07:21;-0.40;99.90
54260;DHT22;40172;53.022;7.012;2023-04-03T02:09:46;-0.40;99.90
54260;DHT22;40172;53.022;7.012;2023-04-03T02:12:12;-0.10;99.90
54260;DHT22;40172;53.022;7.012;2023-04-03T02:14:37;-0.50;99.90
54260;DHT22;40172;53.022;7.012;2023-04-03T02:17:03;-0.50;99.90
54260;DHT22;40172;53.022;7.012;2023-04-03T02:19:31;-0.50;99.90
54260;DHT22;40172;53.022;7.012;2023-04-03T02:21:56;-0.60;99.90
54260;DHT22;40172;53.022;7.012;2023-04-03T02:24:22;-0.60;99.90
54260;DHT22;40172;53.022;7.012;2023-04-03T02:26:47;-0.60;99.90
54260;DHT22;40172;53.022;7.012;2023-04-03T02:29:13;-0.70;99.90
54260;DHT22;40172;53.022;7.012;2023-04-03T02:31:39;-0.70;99.90
54260;DHT22;40172;53.022;7.012;2023-04-03T02:34:04;-0.70;99.90
54260;DHT22;40172;53.022;7.012;2023-04-03T02:36:31;-0.80;99.90
54260;DHT22;40172;53.022;7.012;2023-04-03T02:38:56;-0.90;99.90
54260;DHT22;40172;53.022;7.012;2023-04-03T02:41:22;-0.90;99.90
54260;DHT22;40172;53.022;7.012;2023-04-03T02:43:47;-1.00;99.90
54260;DHT22;40172;53.022;7.012;2023-04-03T02:46:13;-0.80;99.90
54260;DHT22;40172;53.022;7.012;2023-04-03T02:48:40;-1.00;99.90
54260;DHT22;40172;53.022;7.012;2023-04-03T02:51:06;-1.10;99.90
54260;DHT22;40172;53.022;7.012;2023-04-03T02:53:32;-1.10;99.90
54260;DHT22;40172;53.022;7.012;2023-04-03T02:55:57;-1.20;99.90
54260;DHT22;40172;53.022;7.012;2023-04-03T02:58:23;-1.00;99.90
54260;DHT22;40172;53.022;7.012;2023-04-03T03:00:48;-1.30;99.90
54260;DHT22;40172;53.022;7.012;2023-04-03T03:03:14;-1.30;99.90
54260;DHT22;40172;53.022;7.012;2023-04-03T03:05:40;-1.40;99.90
54260;DHT22;40172;53.022;7.012;2023-04-03T03:08:05;-1.50;99.90
54260;DHT22;40172;53.022;7.012;2023-04-03T03:10:31;-1.50;99.90
54260;DHT22;40172;53.022;7.012;2023-04-03T03:12:56;-1.50;99.90
54260;DHT22;40172;53.022;7.012;2023-04-03T03:15:22;-1.50;99.90
54260;DHT22;40172;53.022;7.012;2023-04-03T03:17:47;-1.50;99.90
54260;DHT22;40172;53.022;7.012;2023-04-03T03:20:13;-1.50;99.90
54260;DHT22;40172;53.022;7.012;2023-04-03T03:22:41;-1.50;99.90
54260;DHT22;40172;53.022;7.012;2023-04-03T03:25:07;-1.50;99.90
54260;DHT22;40172;53.022;7.012;2023-04-03T03:27:33;-1.40;99.90
54260;DHT22;40172;53.022;7.012;2023-04-03T03:29:58;-1.40;99.90
54260;DHT22;40172;53.022;7.012;2023-04-03T03:32:24;-1.50;99.90
54260;DHT22;40172;53.022;7.012;2023-04-03T03:34:50;-1.40;99.90
54260;DHT22;40172;53.022;7.012;2023-04-03T03:37:15;-1.40;99.90
54260;DHT22;40172;53.022;7.012;2023-04-03T03:39:41;-1.40;99.90
54260;DHT22;40172;53.022;7.012;2023-04-03T03:42:06;-1.30;99.90
54260;DHT22;40172;53.022;7.012;2023-04-03T03:44:32;-1.40;99.90
54260;DHT22;40172;53.022;7.012;2023-04-03T03:46:58;-1.40;99.90
54260;DHT22;40172;53.022;7.012;2023-04-03T03:49:23;-1.30;99.90
54260;DHT22;40172;53.022;7.012;2023-04-03T03:51:49;-1.40;99.90
54260;DHT22;40172;53.022;7.012;2023-04-03T03:54:16;-1.40;99.90
54260;DHT22;40172;53.022;7.012;2023-04-03T03:56:41;-1.40;99.90
54260;DHT22;40172;53.022;7.012;2023-04-03T03:59:07;-1.40;99.90
54260;DHT22;40172;53.022;7.012;2023-04-03T04:01:32;-1.40;99.90
54260;DHT22;40172;53.022;7.012;2023-04-03T04:03:58;-1.50;99.90
54260;DHT22;40172;53.022;7.012;2023-04-03T04:06:24;-1.50;99.90
54260;DHT22;40172;53.022;7.012;2023-04-03T04:08:49;-1.60;99.90
54260;DHT22;40172;53.022;7.012;2023-04-03T04:11:15;-1.60;99.90
54260;DHT22;40172;53.022;7.012;2023-04-03T04:13:41;-1.60;99.90
54260;DHT22;40172;53.022;7.012;2023-04-03T04:16:07;-1.60;99.90
54260;DHT22;40172;53.022;7.012;2023-04-03T04:18:33;-1.60;99.90
54260;DHT22;40172;53.022;7.012;2023-04-03T04:20:59;-1.60;99.90
54260;DHT22;40172;53.022;7.012;2023-04-03T04:23:25;-1.60;99.90
54260;DHT22;40172;53.022;7.012;2023-04-03T04:25:51;-1.60;99.90
54260;DHT22;40172;53.022;7.012;2023-04-03T04:28:17;-1.60;99.90
54260;DHT22;40172;53.022;7.012;2023-04-03T04:30:43;-1.60;99.90
54260;DHT22;40172;53.022;7.012;2023-04-03T04:33:09;-1.60;99.90
54260;DHT22;40172;53.022;7.012;2023-04-03T04:35:35;-1.70;99.90
54260;DHT22;40172;53.022;7.012;2023-04-03T04:38:01;-1.70;99.90
54260;DHT22;40172;53.022;7.012;2023-04-03T04:40:27;-1.70;99.90
54260;DHT22;40172;53.022;7.012;2023-04-03T04:42:52;-1.70;99.90
54260;DHT22;40172;53.022;7.012;2023-04-03T04:45:18;-1.70;99.90
54260;DHT22;40172;53.022;7.012;2023-04-03T04:47:44;-1.70;99.90
54260;DHT22;40172;53.022;7.012;2023-04-03T04:50:10;-0.80;99.90
54260;DHT22;40172;53.022;7.012;2023-04-03T04:52:37;-1.80;99.90
54260;DHT22;40172;53.022;7.012;2023-04-03T04:55:03;-1.80;99.90
54260;DHT22;40172;53.022;7.012;2023-04-03T04:57:29;-1.80;99.90
54260;DHT22;40172;53.022;7.012;2023-04-03T04:59:54;-1.80;99.90
54260;DHT22;40172;53.022;7.012;2023-04-03T05:02:20;-1.80;99.90
54260;DHT22;40172;53.022;7.012;2023-04-03T05:04:45;-1.50;99.90
54260;DHT22;40172;53.022;7.012;2023-04-03T05:07:11;-1.80;99.90
54260;DHT22;40172;53.022;7.012;2023-04-03T05:09:37;-1.80;99.90
54260;DHT22;40172;53.022;7.012;2023-04-03T05:12:02;-1.80;99.90
54260;DHT22;40172;53.022;7.012;2023-04-03T05:14:28;-1.80;99.90
54260;DHT22;40172;53.022;7.012;2023-04-03T05:16:54;-1.80;99.90
54260;DHT22;40172;53.022;7.012;2023-04-03T05:19:23;-1.70;99.90
54260;DHT22;40172;53.022;7.012;2023-04-03T05:21:48;-1.80;99.90
54260;DHT22;40172;53.022;7.012;2023-04-03T05:24:15;-1.50;99.90
54260;DHT22;40172;53.022;7.012;2023-04-03T05:26:41;-1.80;99.90
54260;DHT22;40172;53.022;7.012;2023-04-03T05:29:06;-1.80;99.90
54260;DHT22;40172;53.022;7.012;2023-04-03T05:31:32;-1.70;99.90
54260;DHT22;40172;53.022;7.012;2023-04-03T05:33:58;-1.70;99.90
54260;DHT22;40172;53.022;7.012;2023-04-03T05:36:23;-1.70;99.90
54260;DHT22;40172;53.022;7.012;2023-04-03T05:38:49;-1.60;99.90
54260;DHT22;40172;53.022;7.012;2023-04-03T05:41:15;-1.60;99.90
54260;DHT22;40172;53.022;7.012;2023-04-03T05:43:41;-1.50;99.90
54260;DHT22;40172;53.022;7.012;2023-04-03T05:46:15;-1.30;99.90
54260;DHT22;40172;53.022;7.012;2023-04-03T05:48:41;-1.40;99.90
54260;DHT22;40172;53.022;7.012;2023-04-03T05:51:09;-1.40;99.90
54260;DHT22;40172;53.022;7.012;2023-04-03T05:53:39;-1.30;99.90
54260;DHT22;40172;53.022;7.012;2023-04-03T05:56:04;-1.30;99.90
54260;DHT22;40172;53.022;7.012;2023-04-03T05:58:30;-0.50;99.90
54260;DHT22;40172;53.022;7.012;2023-04-03T06:00:56;-1.20;99.90
54260;DHT22;40172;53.022;7.012;2023-04-03T06:03:22;-1.10;99.90
54260;DHT22;40172;53.022;7.012;2023-04-03T06:05:48;-1.10;99.90
54260;DHT22;40172;53.022;7.012;2023-04-03T06:08:13;-1.00;99.90
54260;DHT22;40172;53.022;7.012;2023-04-03T06:10:40;-0.90;99.90
54260;DHT22;40172;53.022;7.012;2023-04-03T06:13:05;-0.80;99.90
54260;DHT22;40172;53.022;7.012;2023-04-03T06:15:31;-0.60;99.90
54260;DHT22;40172;53.022;7.012;2023-04-03T06:17:57;-0.70;99.90
54260;DHT22;40172;53.022;7.012;2023-04-03T06:20:22;-0.60;99.90
54260;DHT22;40172;53.022;7.012;2023-04-03T06:22:48;-0.50;99.90
54260;DHT22;40172;53.022;7.012;2023-04-03T06:25:14;-0.50;99.90
54260;DHT22;40172;53.022;7.012;2023-04-03T06:27:39;-0.10;99.90
54260;DHT22;40172;53.022;7.012;2023-04-03T06:30:06;-0.30;99.90
54260;DHT22;40172;53.022;7.012;2023-04-03T06:32:32;-0.30;99.90
54260;DHT22;40172;53.022;7.012;2023-04-03T06:34:57;-0.20;99.90
54260;DHT22;40172;53.022;7.012;2023-04-03T06:37:24;-0.20;99.90
54260;DHT22;40172;53.022;7.012;2023-04-03T06:39:54;-0.10;99.90
54260;DHT22;40172;53.022;7.012;2023-04-03T06:42:20;0.00;99.90
54260;DHT22;40172;53.022;7.012;2023-04-03T06:44:47;0.10;99.90
54260;DHT22;40172;53.022;7.012;2023-04-03T06:47:16;0.20;99.90
54260;DHT22;40172;53.022;7.012;2023-04-03T06:49:42;0.20;99.90
54260;DHT22;40172;53.022;7.012;2023-04-03T06:52:09;0.40;99.90
54260;DHT22;40172;53.022;7.012;2023-04-03T06:54:35;0.40;99.90
54260;DHT22;40172;53.022;7.012;2023-04-03T06:57:01;0.80;99.90
54260;DHT22;40172;53.022;7.012;2023-04-03T06:59:27;1.00;99.90
54260;DHT22;40172;53.022;7.012;2023-04-03T07:01:53;0.70;99.90
54260;DHT22;40172;53.022;7.012;2023-04-03T07:04:19;0.80;99.90
54260;DHT22;40172;53.022;7.012;2023-04-03T07:06:46;1.10;99.90
54260;DHT22;40172;53.022;7.012;2023-04-03T07:09:12;1.20;99.90
54260;DHT22;40172;53.022;7.012;2023-04-03T07:11:38;1.10;99.90
54260;DHT22;40172;53.022;7.012;2023-04-03T07:14:04;1.20;99.90
54260;DHT22;40172;53.022;7.012;2023-04-03T07:16:30;1.30;99.90
54260;DHT22;40172;53.022;7.012;2023-04-03T07:18:57;1.40;99.90
54260;DHT22;40172;53.022;7.012;2023-04-03T07:21:23;1.50;99.90
54260;DHT22;40172;53.022;7.012;2023-04-03T07:23:48;1.60;99.90
54260;DHT22;40172;53.022;7.012;2023-04-03T07:26:14;1.80;99.90
54260;DHT22;40172;53.022;7.012;2023-04-03T07:28:40;2.10;99.90
54260;DHT22;40172;53.022;7.012;2023-04-03T07:31:10;2.00;99.90
54260;DHT22;40172;53.022;7.012;2023-04-03T07:33:39;2.10;99.90
54260;DHT22;40172;53.022;7.012;2023-04-03T07:36:06;2.20;99.90
54260;DHT22;40172;53.022;7.012;2023-04-03T07:38:35;2.30;99.90
54260;DHT22;40172;53.022;7.012;2023-04-03T07:41:02;2.40;99.90
54260;DHT22;40172;53.022;7.012;2023-04-03T07:43:28;2.50;99.90
54260;DHT22;40172;53.022;7.012;2023-04-03T07:45:53;2.60;99.90
54260;DHT22;40172;53.022;7.012;2023-04-03T07:48:24;2.70;99.90
54260;DHT22;40172;53.022;7.012;2023-04-03T07:50:50;2.80;99.90
54260;DHT22;40172;53.022;7.012;2023-04-03T07:53:17;3.00;99.90
54260;DHT22;40172;53.022;7.012;2023-04-03T07:55:43;3.10;99.90
54260;DHT22;40172;53.022;7.012;2023-04-03T07:58:12;3.20;99.90
54260;DHT22;40172;53.022;7.012;2023-04-03T08:00:40;3.30;99.90
54260;DHT22;40172;53.022;7.012;2023-04-03T08:03:06;3.40;99.90
54260;DHT22;40172;53.022;7.012;2023-04-03T08:05:36;3.50;99.90
54260;DHT22;40172;53.022;7.012;2023-04-03T08:08:02;3.60;99.90
54260;DHT22;40172;53.022;7.012;2023-04-03T08:10:30;3.70;99.90
54260;DHT22;40172;53.022;7.012;2023-04-03T08:12:56;3.80;99.90
54260;DHT22;40172;53.022;7.012;2023-04-03T08:15:22;3.90;99.90
54260;DHT22;40172;53.022;7.012;2023-04-03T08:17:48;4.10;99.90
54260;DHT22;40172;53.022;7.012;2023-04-03T08:20:14;4.20;99.90
54260;DHT22;40172;53.022;7.012;2023-04-03T08:22:39;4.30;99.90
54260;DHT22;40172;53.022;7.012;2023-04-03T08:25:06;4.40;99.90
54260;DHT22;40172;53.022;7.012;2023-04-03T08:27:32;4.50;99.90
54260;DHT22;40172;53.022;7.012;2023-04-03T08:29:57;4.60;99.90
54260;DHT22;40172;53.022;7.012;2023-04-03T08:32:24;4.70;99.90
54260;DHT22;40172;53.022;7.012;2023-04-03T08:34:50;4.80;99.90
54260;DHT22;40172;53.022;7.012;2023-04-03T08:37:15;4.90;99.90
54260;DHT22;40172;53.022;7.012;2023-04-03T08:39:42;4.90;99.90
54260;DHT22;40172;53.022;7.012;2023-04-03T08:45:16;5.20;99.90
54260;DHT22;40172;53.022;7.012;2023-04-03T08:47:58;5.20;99.90
54260;DHT22;40172;53.022;7.012;2023-04-03T08:50:34;5.40;99.90
54260;DHT22;40172;53.022;7.012;2023-04-03T08:53:02;5.50;99.90
54260;DHT22;40172;53.022;7.012;2023-04-03T08:58:10;5.50;99.90
54260;DHT22;40172;53.022;7.012;2023-04-03T09:03:21;5.80;99.90
54260;DHT22;40172;53.022;7.012;2023-04-03T09:08:30;5.90;99.90
54260;DHT22;40172;53.022;7.012;2023-04-03T09:11:24;6.00;99.90
54260;DHT22;40172;53.022;7.012;2023-04-03T09:16:32;6.20;99.90
54260;DHT22;40172;53.022;7.012;2023-04-03T09:19:22;6.30;99.90
54260;DHT22;40172;53.022;7.012;2023-04-03T09:21:50;6.50;99.90
54260;DHT22;40172;53.022;7.012;2023-04-03T09:24:17;6.60;99.90
54260;DHT22;40172;53.022;7.012;2023-04-03T09:27:01;6.70;99.90
54260;DHT22;40172;53.022;7.012;2023-04-03T09:29:29;6.80;99.90
54260;DHT22;40172;53.022;7.012;2023-04-03T09:32:02;6.80;99.90
54260;DHT22;40172;53.022;7.012;2023-04-03T09:34:41;7.00;99.90
54260;DHT22;40172;53.022;7.012;2023-04-03T09:37:07;7.00;99.90
54260;DHT22;40172;53.022;7.012;2023-04-03T09:39:51;7.10;98.40
54260;DHT22;40172;53.022;7.012;2023-04-03T09:42:21;8.40;98.00
54260;DHT22;40172;53.022;7.012;2023-04-03T09:45:03;7.20;97.40
54260;DHT22;40172;53.022;7.012;2023-04-03T09:47:34;7.40;97.50
54260;DHT22;40172;53.022;7.012;2023-04-03T09:52:41;7.60;94.00
54260;DHT22;40172;53.022;7.012;2023-04-03T09:55:31;7.60;94.00
54260;DHT22;40172;53.022;7.012;2023-04-03T09:58:00;7.70;94.80
54260;DHT22;40172;53.022;7.012;2023-04-03T10:00:36;7.80;92.30
54260;DHT22;40172;53.022;7.012;2023-04-03T10:03:03;7.90;92.80
54260;DHT22;40172;53.022;7.012;2023-04-03T10:05:36;8.00;90.40
54260;DHT22;40172;53.022;7.012;2023-04-03T10:10:38;8.10;91.20
54260;DHT22;40172;53.022;7.012;2023-04-03T10:13:14;8.20;92.50
54260;DHT22;40172;53.022;7.012;2023-04-03T10:15:50;8.30;89.60
54260;DHT22;40172;53.022;7.012;2023-04-03T10:18:38;8.50;88.50
54260;DHT22;40172;53.022;7.012;2023-04-03T10:21:10;8.60;86.00
54260;DHT22;40172;53.022;7.012;2023-04-03T10:29:27;8.70;79.50
54260;DHT22;40172;53.022;7.012;2023-04-03T10:37:52;8.90;75.50
54260;DHT22;40172;53.022;7.012;2023-04-03T10:43:36;8.90;78.20
54260;DHT22;40172;53.022;7.012;2023-04-03T10:46:09;9.00;80.20
54260;DHT22;40172;53.022;7.012;2023-04-03T10:48:52;9.10;79.70
54260;DHT22;40172;53.022;7.012;2023-04-03T10:51:22;9.20;76.90
54260;DHT22;40172;53.022;7.012;2023-04-03T10:56:42;9.20;76.90
54260;DHT22;40172;53.022;7.012;2023-04-03T11:01:58;9.20;76.80
54260;DHT22;40172;53.022;7.012;2023-04-03T11:04:28;9.20;78.40
54260;DHT22;40172;53.022;7.012;2023-04-03T11:07:02;9.30;79.60
54260;DHT22;40172;53.022;7.012;2023-04-03T11:09:35;9.40;78.00
54260;DHT22;40172;53.022;7.012;2023-04-03T11:12:23;9.30;75.20
54260;DHT22;40172;53.022;7.012;2023-04-03T11:14:51;9.20;72.60
54260;DHT22;40172;53.022;7.012;2023-04-03T11:20:09;9.10;71.40
54260;DHT22;40172;53.022;7.012;2023-04-03T11:22:57;9.00;71.20
54260;DHT22;40172;53.022;7.012;2023-04-03T11:25:25;9.20;73.50
54260;DHT22;40172;53.022;7.012;2023-04-03T11:27:55;9.20;73.50
54260;DHT22;40172;53.022;7.012;2023-04-03T11:30:39;9.30;73.50
54260;DHT22;40172;53.022;7.012;2023-04-03T11:38:45;9.40;71.50
54260;DHT22;40172;53.022;7.012;2023-04-03T11:41:13;9.40;71.60
54260;DHT22;40172;53.022;7.012;2023-04-03T11:49:55;9.40;70.30
54260;DHT22;40172;53.022;7.012;2023-04-03T12:00:47;9.60;66.80
54260;DHT22;40172;53.022;7.012;2023-04-03T12:16:33;9.80;66.10
54260;DHT22;40172;53.022;7.012;2023-04-03T12:19:36;9.80;67.80
54260;DHT22;40172;53.022;7.012;2023-04-03T12:24:39;9.90;69.50
54260;DHT22;40172;53.022;7.012;2023-04-03T12:27:38;10.20;68.70
54260;DHT22;40172;53.022;7.012;2023-04-03T12:30:25;10.10;69.30
54260;DHT22;40172;53.022;7.012;2023-04-03T12:33:02;10.20;69.30
54260;DHT22;40172;53.022;7.012;2023-04-03T12:35:31;10.20;69.60
54260;DHT22;40172;53.022;7.012;2023-04-03T12:38:21;10.20;69.10
54260;DHT22;40172;53.022;7.012;2023-04-03T12:41:21;10.30;67.30
54260;DHT22;40172;53.022;7.012;2023-04-03T12:43:56;10.20;65.00
54260;DHT22;40172;53.022;7.012;2023-04-03T12:46:33;10.10;66.90
54260;DHT22;40172;53.022;7.012;2023-04-03T12:49:01;10.20;67.70
54260;DHT22;40172;53.022;7.012;2023-04-03T12:51:38;10.30;68.50
54260;DHT22;40172;53.022;7.012;2023-04-03T12:54:38;10.40;67.20
54260;DHT22;40172;53.022;7.012;2023-04-03T12:57:25;10.30;66.20
54260;DHT22;40172;53.022;7.012;2023-04-03T12:59:51;10.30;68.00
54260;DHT22;40172;53.022;7.012;2023-04-03T13:04:49;10.30;64.70
54260;DHT22;40172;53.022;7.012;2023-04-03T13:07:32;10.30;64.90
54260;DHT22;40172;53.022;7.012;2023-04-03T13:12:55;10.40;64.20
54260;DHT22;40172;53.022;7.012;2023-04-03T13:15:46;10.40;65.80
54260;DHT22;40172;53.022;7.012;2023-04-03T13:18:30;10.40;64.90
54260;DHT22;40172;53.022;7.012;2023-04-03T13:21:10;10.30;64.30
54260;DHT22;40172;53.022;7.012;2023-04-03T13:23:40;10.30;63.40
54260;DHT22;40172;53.022;7.012;2023-04-03T13:26:08;10.40;66.10
54260;DHT22;40172;53.022;7.012;2023-04-03T13:28:35;10.40;64.90
54260;DHT22;40172;53.022;7.012;2023-04-03T13:31:13;10.50;63.90
54260;DHT22;40172;53.022;7.012;2023-04-03T13:33:56;10.50;63.30
54260;DHT22;40172;53.022;7.012;2023-04-03T13:36:29;10.60;65.10
54260;DHT22;40172;53.022;7.012;2023-04-03T13:39:22;10.60;64.70
54260;DHT22;40172;53.022;7.012;2023-04-03T13:41:51;10.70;62.60
54260;DHT22;40172;53.022;7.012;2023-04-03T13:46:54;10.80;63.60
54260;DHT22;40172;53.022;7.012;2023-04-03T13:49:34;10.80;65.00
54260;DHT22;40172;53.022;7.012;2023-04-03T13:52:26;10.70;63.80
54260;DHT22;40172;53.022;7.012;2023-04-03T13:55:00;10.50;63.30
54260;DHT22;40172;53.022;7.012;2023-04-03T13:57:27;10.50;62.70
54260;DHT22;40172;53.022;7.012;2023-04-03T13:59:52;10.60;63.50
54260;DHT22;40172;53.022;7.012;2023-04-03T14:02:22;10.60;63.40
54260;DHT22;40172;53.022;7.012;2023-04-03T14:04:52;10.50;62.90
54260;DHT22;40172;53.022;7.012;2023-04-03T14:07:22;10.50;62.70
54260;DHT22;40172;53.022;7.012;2023-04-03T14:09:47;10.40;62.40
54260;DHT22;40172;53.022;7.012;2023-04-03T14:12:29;10.40;61.50
54260;DHT22;40172;53.022;7.012;2023-04-03T14:14:56;10.40;61.70
54260;DHT22;40172;53.022;7.012;2023-04-03T14:17:25;10.30;64.10
54260;DHT22;40172;53.022;7.012;2023-04-03T14:19:52;10.30;63.00
54260;DHT22;40172;53.022;7.012;2023-04-03T14:22:31;10.30;63.10
54260;DHT22;40172;53.022;7.012;2023-04-03T14:24:57;10.30;61.00
54260;DHT22;40172;53.022;7.012;2023-04-03T14:27:50;10.20;62.20
54260;DHT22;40172;53.022;7.012;2023-04-03T14:30:32;10.10;61.80
54260;DHT22;40172;53.022;7.012;2023-04-03T14:32:58;10.20;62.70
54260;DHT22;40172;53.022;7.012;2023-04-03T14:35:26;10.20;63.00
54260;DHT22;40172;53.022;7.012;2023-04-03T14:37:52;10.20;64.70
54260;DHT22;40172;53.022;7.012;2023-04-03T14:40:23;10.30;63.10
54260;DHT22;40172;53.022;7.012;2023-04-03T14:42:49;10.30;63.50
54260;DHT22;40172;53.022;7.012;2023-04-03T14:45:16;10.30;63.00
54260;DHT22;40172;53.022;7.012;2023-04-03T14:47:50;10.30;62.50
54260;DHT22;40172;53.022;7.012;2023-04-03T14:50:20;10.40;62.90
54260;DHT22;40172;53.022;7.012;2023-04-03T14:52:48;10.30;62.80
54260;DHT22;40172;53.022;7.012;2023-04-03T14:55:16;10.30;63.10
54260;DHT22;40172;53.022;7.012;2023-04-03T14:57:43;10.20;64.30
54260;DHT22;40172;53.022;7.012;2023-04-03T15:00:18;10.30;63.60
54260;DHT22;40172;53.022;7.012;2023-04-03T15:02:44;10.20;62.30
54260;DHT22;40172;53.022;7.012;2023-04-03T15:05:11;10.20;62.70
54260;DHT22;40172;53.022;7.012;2023-04-03T15:07:40;10.20;63.40
54260;DHT22;40172;53.022;7.012;2023-04-03T15:10:18;10.20;62.00
54260;DHT22;40172;53.022;7.012;2023-04-03T15:12:44;10.10;64.00
54260;DHT22;40172;53.022;7.012;2023-04-03T15:15:10;10.20;64.10
54260;DHT22;40172;53.022;7.012;2023-04-03T15:17:36;10.30;63.30
54260;DHT22;40172;53.022;7.012;2023-04-03T15:20:03;10.40;63.50
54260;DHT22;40172;53.022;7.012;2023-04-03T15:22:31;10.30;63.20
54260;DHT22;40172;53.022;7.012;2023-04-03T15:24:57;10.30;63.20
54260;DHT22;40172;53.022;7.012;2023-04-03T15:27:23;10.30;63.10
54260;DHT22;40172;53.022;7.012;2023-04-03T15:29:48;10.40;62.10
54260;DHT22;40172;53.022;7.012;2023-04-03T15:32:14;10.30;61.70
54260;DHT22;40172;53.022;7.012;2023-04-03T15:34:40;10.20;61.70
54260;DHT22;40172;53.022;7.012;2023-04-03T15:37:05;10.80;61.70
54260;DHT22;40172;53.022;7.012;2023-04-03T15:39:31;10.20;61.20
54260;DHT22;40172;53.022;7.012;2023-04-03T15:41:58;10.20;61.20
54260;DHT22;40172;53.022;7.012;2023-04-03T15:44:34;10.20;60.90
54260;DHT22;40172;53.022;7.012;2023-04-03T15:47:00;10.30;61.20
54260;DHT22;40172;53.022;7.012;2023-04-03T15:49:27;10.30;62.40
54260;DHT22;40172;53.022;7.012;2023-04-03T15:51:53;10.30;61.80
54260;DHT22;40172;53.022;7.012;2023-04-03T15:54:19;10.30;61.50
54260;DHT22;40172;53.022;7.012;2023-04-03T15:56:44;10.30;60.30
54260;DHT22;40172;53.022;7.012;2023-04-03T15:59:10;10.20;60.50
54260;DHT22;40172;53.022;7.012;2023-04-03T16:01:37;10.20;60.40
54260;DHT22;40172;53.022;7.012;2023-04-03T16:04:05;10.20;61.00
54260;DHT22;40172;53.022;7.012;2023-04-03T16:06:31;10.10;60.70
54260;DHT22;40172;53.022;7.012;2023-04-03T16:08:58;10.40;60.80
54260;DHT22;40172;53.022;7.012;2023-04-03T16:11:25;10.20;61.20
54260;DHT22;40172;53.022;7.012;2023-04-03T16:13:51;10.20;61.50
54260;DHT22;40172;53.022;7.012;2023-04-03T16:16:17;10.30;60.80
54260;DHT22;40172;53.022;7.012;2023-04-03T16:18:42;10.30;60.40
54260;DHT22;40172;53.022;7.012;2023-04-03T16:21:08;10.30;61.00
54260;DHT22;40172;53.022;7.012;2023-04-03T16:23:35;10.40;60.70
54260;DHT22;40172;53.022;7.012;2023-04-03T16:26:01;10.50;61.20
54260;DHT22;40172;53.022;7.012;2023-04-03T16:28:26;10.60;60.90
54260;DHT22;40172;53.022;7.012;2023-04-03T16:30:52;10.70;60.50
54260;DHT22;40172;53.022;7.012;2023-04-03T16:33:18;10.80;60.20
54260;DHT22;40172;53.022;7.012;2023-04-03T16:35:47;11.00;59.40
54260;DHT22;40172;53.022;7.012;2023-04-03T16:38:14;11.30;59.00
54260;DHT22;40172;53.022;7.012;2023-04-03T16:40:40;11.60;58.50
54260;DHT22;40172;53.022;7.012;2023-04-03T16:43:06;12.10;57.30
54260;DHT22;40172;53.022;7.012;2023-04-03T16:45:32;12.50;56.00
54260;DHT22;40172;53.022;7.012;2023-04-03T16:47:58;12.80;55.00
54260;DHT22;40172;53.022;7.012;2023-04-03T16:50:23;13.20;54.20
54260;DHT22;40172;53.022;7.012;2023-04-03T16:52:49;13.30;53.20
54260;DHT22;40172;53.022;7.012;2023-04-03T16:55:15;13.50;53.40
54260;DHT22;40172;53.022;7.012;2023-04-03T16:57:40;13.60;53.20
54260;DHT22;40172;53.022;7.012;2023-04-03T17:00:07;13.80;52.60
54260;DHT22;40172;53.022;7.012;2023-04-03T17:02:33;14.00;51.50
54260;DHT22;40172;53.022;7.012;2023-04-03T17:04:59;14.20;52.40
54260;DHT22;40172;53.022;7.012;2023-04-03T17:07:25;14.30;51.80
54260;DHT22;40172;53.022;7.012;2023-04-03T17:09:51;14.40;51.60
54260;DHT22;40172;53.022;7.012;2023-04-03T17:12:19;14.50;51.10
54260;DHT22;40172;53.022;7.012;2023-04-03T17:14:45;14.70;51.30
54260;DHT22;40172;53.022;7.012;2023-04-03T17:17:13;14.70;51.00
54260;DHT22;40172;53.022;7.012;2023-04-03T17:19:39;14.70;51.50
54260;DHT22;40172;53.022;7.012;2023-04-03T17:22:07;14.50;51.30
54260;DHT22;40172;53.022;7.012;2023-04-03T17:24:33;14.00;51.30